createdAt,value
2018-02-25T00:01:26.888Z,-1.80
2018-02-25T00:03:54.384Z,-2.00
2018-02-25T00:06:21.816Z,-1.90
2018-02-25T00:08:49.307Z,-1.90
2018-02-25T00:11:16.768Z,-2.00
2018-02-25T00:13:44.980Z,-2.00
2018-02-25T00:16:12.427Z,-2.00
2018-02-25T00:18:39.958Z,-2.10
2018-02-25T00:21:07.351Z,-2.10
2018-02-25T00:23:34.878Z,-2.10
2018-02-25T00:26:03.102Z,-2.20
2018-02-25T00:28:30.554Z,-2.20
2018-02-25T00:30:58.003Z,-2.20
2018-02-25T00:33:25.463Z,-2.20
2018-02-25T00:35:52.914Z,-2.10
2018-02-25T00:38:20.463Z,-2.10
2018-02-25T00:40:47.931Z,-2.20
2018-02-25T00:43:15.386Z,-2.20
2018-02-25T00:45:42.846Z,-2.10
2018-02-25T00:48:10.298Z,-2.20
2018-02-25T00:50:37.757Z,-2.20
2018-02-25T00:53:05.206Z,-2.30
2018-02-25T00:55:32.669Z,-2.30
2018-02-25T00:58:00.118Z,-2.30
2018-02-25T01:00:27.578Z,-2.30
2018-02-25T01:02:55.067Z,-2.30
2018-02-25T01:05:22.518Z,-2.40
2018-02-25T01:07:50.035Z,-2.40
2018-02-25T01:10:17.491Z,-2.40
2018-02-25T01:12:45.700Z,-2.60
2018-02-25T01:15:13.158Z,-2.60
2018-02-25T01:17:40.613Z,-2.50
2018-02-25T01:20:08.079Z,-2.50
2018-02-25T01:22:35.598Z,-2.60
2018-02-25T01:25:03.822Z,-2.60
2018-02-25T01:27:31.273Z,-2.60
2018-02-25T01:29:58.731Z,-2.60
2018-02-25T01:32:26.231Z,-2.70
2018-02-25T01:34:57.507Z,-2.70
2018-02-25T01:37:24.949Z,-2.80
2018-02-25T01:39:53.166Z,-2.80
2018-02-25T01:42:20.619Z,-2.80
2018-02-25T01:44:48.081Z,-2.80
2018-02-25T01:47:15.532Z,-2.80
2018-02-25T01:49:42.990Z,-2.80
2018-02-25T01:52:10.429Z,-2.70
2018-02-25T01:54:37.892Z,-2.70
2018-02-25T01:57:05.349Z,-2.70
2018-02-25T01:59:32.793Z,-2.80
2018-02-25T02:02:00.245Z,-2.80
2018-02-25T02:04:27.702Z,-2.90
2018-02-25T02:06:55.150Z,-2.90
2018-02-25T02:09:23.370Z,-2.90
2018-02-25T02:11:50.828Z,-2.90
2018-02-25T02:14:18.290Z,-2.80
2018-02-25T02:16:45.736Z,-2.90
2018-02-25T02:19:13.203Z,-2.90
2018-02-25T02:21:40.664Z,-2.90
2018-02-25T02:24:08.113Z,-2.90
2018-02-25T02:26:35.564Z,-2.90
2018-02-25T02:29:03.101Z,-3.00
2018-02-25T02:31:30.553Z,-3.10
2018-02-25T02:33:58.769Z,-3.10
2018-02-25T02:36:26.229Z,-3.10
2018-02-25T02:38:53.740Z,-3.10
2018-02-25T02:41:21.978Z,-3.00
2018-02-25T02:43:49.445Z,-3.10
2018-02-25T02:46:16.889Z,-3.20
2018-02-25T02:48:44.404Z,-3.20
2018-02-25T02:51:11.870Z,-3.30
2018-02-25T02:53:39.319Z,-3.30
2018-02-25T02:56:06.768Z,-3.30
2018-02-25T02:58:34.234Z,-3.30
2018-02-25T03:01:01.711Z,-3.30
2018-02-25T03:03:29.167Z,-3.30
2018-02-25T03:05:56.626Z,-3.30
2018-02-25T03:08:24.088Z,-3.40
2018-02-25T03:10:51.558Z,-3.40
2018-02-25T03:13:19.006Z,-3.40
2018-02-25T03:15:46.450Z,-3.50
2018-02-25T03:18:13.908Z,-3.50
2018-02-25T03:20:41.372Z,-3.50
2018-02-25T03:23:08.828Z,-3.50
2018-02-25T03:25:36.290Z,-3.50
2018-02-25T03:28:03.739Z,-3.50
2018-02-25T03:30:31.197Z,-3.50
2018-02-25T03:32:58.656Z,-3.50
2018-02-25T03:35:26.188Z,-3.50
2018-02-25T03:37:53.647Z,-3.60
2018-02-25T03:40:21.940Z,-3.70
2018-02-25T03:42:49.386Z,-3.80
2018-02-25T03:45:16.838Z,-3.70
2018-02-25T03:47:44.300Z,-3.70
2018-02-25T03:50:11.757Z,-3.70
2018-02-25T03:52:39.958Z,-3.70
2018-02-25T03:55:07.406Z,-3.80
2018-02-25T03:57:34.870Z,-3.90
2018-02-25T04:00:02.335Z,-4.00
2018-02-25T04:02:29.782Z,-4.00
2018-02-25T04:04:57.223Z,-4.00
2018-02-25T04:07:24.689Z,-4.00
2018-02-25T04:09:52.151Z,-4.00
2018-02-25T04:12:19.591Z,-4.00
2018-02-25T04:14:47.051Z,-4.10
2018-02-25T04:17:14.492Z,-4.10
2018-02-25T04:19:42.704Z,-4.20
2018-02-25T04:22:10.154Z,-4.30
2018-02-25T04:24:37.623Z,-4.30
2018-02-25T04:27:05.056Z,-4.30
2018-02-25T04:29:32.532Z,-4.20
2018-02-25T04:31:59.987Z,-4.30
2018-02-25T04:34:27.457Z,-4.40
2018-02-25T04:36:54.910Z,-4.40
2018-02-25T04:39:22.350Z,-4.40
2018-02-25T04:41:49.843Z,-4.40
2018-02-25T04:44:17.299Z,-4.40
2018-02-25T04:46:44.763Z,-4.50
2018-02-25T04:49:12.213Z,-4.60
2018-02-25T04:51:39.678Z,-4.60
2018-02-25T04:54:07.147Z,-4.60
2018-02-25T04:56:34.606Z,-4.70
2018-02-25T04:59:02.057Z,-4.60
2018-02-25T05:01:29.505Z,-4.60
2018-02-25T05:03:56.965Z,-4.60
2018-02-25T05:06:24.428Z,-4.80
2018-02-25T05:08:51.893Z,-4.70
2018-02-25T05:11:19.346Z,-4.80
2018-02-25T05:13:46.817Z,-4.80
2018-02-25T05:16:15.057Z,-4.80
2018-02-25T05:18:43.613Z,-4.80
2018-02-25T05:21:11.071Z,-4.70
2018-02-25T05:23:38.542Z,-4.70
2018-02-25T05:26:06.774Z,-4.90
2018-02-25T05:28:34.999Z,-4.90
2018-02-25T05:31:02.464Z,-4.90
2018-02-25T05:33:30.031Z,-4.90
2018-02-25T05:35:57.536Z,-4.90
2018-02-25T05:38:24.985Z,-4.80
2018-02-25T05:40:52.459Z,-4.90
2018-02-25T05:43:19.927Z,-4.80
2018-02-25T05:45:47.392Z,-4.80
2018-02-25T05:48:14.851Z,-4.80
2018-02-25T05:50:42.327Z,-4.90
2018-02-25T05:53:09.781Z,-5.00
2018-02-25T05:55:37.253Z,-5.00
2018-02-25T05:58:04.710Z,-5.00
2018-02-25T06:00:32.164Z,-4.90
2018-02-25T06:02:59.631Z,-4.90
2018-02-25T06:05:27.159Z,-5.00
2018-02-25T06:07:54.608Z,-5.00
2018-02-25T06:10:22.065Z,-5.00
2018-02-25T06:12:49.606Z,-5.00
2018-02-25T06:15:17.079Z,-5.00
2018-02-25T06:17:44.537Z,-5.00
2018-02-25T06:20:11.996Z,-5.10
2018-02-25T06:22:39.452Z,-5.00
2018-02-25T06:25:06.997Z,-5.00
2018-02-25T06:27:34.445Z,-5.00
2018-02-25T06:30:01.888Z,-5.00
2018-02-25T06:32:30.137Z,-5.00
2018-02-25T06:34:57.599Z,-5.00
2018-02-25T06:37:25.092Z,-4.90
2018-02-25T06:39:52.548Z,-4.90
2018-02-25T06:42:20.813Z,-4.80
2018-02-25T06:44:48.225Z,-4.80
2018-02-25T06:47:15.686Z,-4.70
2018-02-25T06:49:43.130Z,-4.80
2018-02-25T06:52:10.584Z,-4.80
2018-02-25T06:54:38.076Z,-4.90
2018-02-25T06:57:05.587Z,-4.90
2018-02-25T06:59:33.123Z,-4.90
2018-02-25T07:02:00.503Z,-4.90
2018-02-25T07:04:27.977Z,-4.90
2018-02-25T07:06:55.438Z,-4.90
2018-02-25T07:09:22.894Z,-4.80
2018-02-25T07:11:50.353Z,-4.80
2018-02-25T07:14:17.829Z,-4.80
2018-02-25T07:16:45.337Z,-4.80
2018-02-25T07:19:12.800Z,-4.70
2018-02-25T07:21:40.257Z,-4.60
2018-02-25T07:24:07.704Z,-4.60
2018-02-25T07:26:35.173Z,-4.60
2018-02-25T07:29:02.637Z,-4.60
2018-02-25T07:31:30.084Z,-4.60
2018-02-25T07:33:57.538Z,-4.60
2018-02-25T07:36:25.011Z,-4.60
2018-02-25T07:38:52.446Z,-4.50
2018-02-25T07:41:19.933Z,-4.50
2018-02-25T07:43:47.372Z,-4.40
2018-02-25T07:46:15.625Z,-4.20
2018-02-25T07:48:43.838Z,-4.20
2018-02-25T07:51:11.302Z,-4.20
2018-02-25T07:53:38.761Z,-4.20
2018-02-25T07:56:06.245Z,-4.10
2018-02-25T07:58:33.715Z,-4.00
2018-02-25T08:01:01.155Z,-4.00
2018-02-25T08:03:28.609Z,-3.90
2018-02-25T08:05:56.102Z,-3.80
2018-02-25T08:08:24.448Z,-3.70
2018-02-25T08:10:51.849Z,-3.70
2018-02-25T08:13:20.131Z,-3.80
2018-02-25T08:15:48.490Z,-3.70
2018-02-25T08:18:16.026Z,-3.70
2018-02-25T08:20:43.541Z,-3.60
2018-02-25T08:23:10.976Z,-3.50
2018-02-25T08:25:39.196Z,-3.20
2018-02-25T08:28:06.665Z,-3.30
2018-02-25T08:30:34.110Z,-3.00
2018-02-25T08:33:01.625Z,-2.50
2018-02-25T08:35:29.950Z,-0.60
2018-02-25T08:37:57.378Z,-0.60
2018-02-25T08:40:24.816Z,0.20
2018-02-25T08:42:53.033Z,1.30
2018-02-25T08:45:20.500Z,1.30
2018-02-25T08:47:48.012Z,2.00
2018-02-25T08:50:15.452Z,2.80
2018-02-25T08:52:42.890Z,3.90
2018-02-25T08:55:10.337Z,4.60
2018-02-25T08:57:37.834Z,5.10
2018-02-25T09:00:06.039Z,6.00
2018-02-25T09:02:33.461Z,6.00
2018-02-25T09:05:01.680Z,4.70
2018-02-25T09:07:29.244Z,4.70
2018-02-25T09:09:56.677Z,5.40
2018-02-25T09:12:24.116Z,5.70
2018-02-25T09:14:51.562Z,5.10
2018-02-25T09:17:19.004Z,4.90
2018-02-25T09:19:46.490Z,5.20
2018-02-25T09:22:14.765Z,3.00
2018-02-25T09:24:42.235Z,3.00
2018-02-25T09:27:09.686Z,1.90
2018-02-25T09:29:37.890Z,-0.20
2018-02-25T09:32:05.336Z,-0.20
2018-02-25T09:34:32.786Z,-0.60
2018-02-25T09:37:00.262Z,-0.50
2018-02-25T09:39:27.705Z,0.30
2018-02-25T09:41:55.162Z,1.00
2018-02-25T09:44:22.637Z,0.90
2018-02-25T09:46:50.091Z,0.60
2018-02-25T09:49:17.527Z,0.90
2018-02-25T09:51:44.974Z,1.60
2018-02-25T09:54:13.191Z,3.10
2018-02-25T09:56:40.637Z,3.10
2018-02-25T09:59:08.165Z,3.60
2018-02-25T10:01:36.457Z,3.50
2018-02-25T10:04:03.884Z,3.40
2018-02-25T10:06:32.088Z,3.90
2018-02-25T10:08:59.546Z,3.90
2018-02-25T10:11:27.041Z,4.10
2018-02-25T10:13:55.464Z,3.70
2018-02-25T10:16:23.686Z,4.60
2018-02-25T10:18:51.354Z,4.60
2018-02-25T10:21:18.777Z,4.70
2018-02-25T10:23:46.219Z,4.10
2018-02-25T10:26:14.431Z,3.00
2018-02-25T10:28:41.864Z,3.00
2018-02-25T10:31:09.314Z,2.40
2018-02-25T10:33:37.515Z,2.90
2018-02-25T10:36:04.968Z,2.90
2018-02-25T10:38:32.399Z,2.60
2018-02-25T10:41:00.614Z,3.00
2018-02-25T10:43:28.146Z,3.00
2018-02-25T10:45:56.325Z,3.20
2018-02-25T10:48:23.776Z,3.20
2018-02-25T10:50:51.215Z,3.50
2018-02-25T10:53:19.424Z,3.70
2018-02-25T10:55:46.883Z,3.60
2018-02-25T10:58:14.317Z,3.00
2018-02-25T11:00:41.774Z,3.10
2018-02-25T11:03:13.720Z,2.30
2018-02-25T11:05:41.924Z,2.70
2018-02-25T11:08:09.366Z,2.70
2018-02-25T11:10:37.598Z,2.80
2018-02-25T11:13:05.098Z,2.80
2018-02-25T11:15:33.393Z,2.50
2018-02-25T11:18:00.797Z,2.50
2018-02-25T11:20:28.259Z,2.20
2018-02-25T11:22:55.734Z,1.90
2018-02-25T11:25:24.200Z,1.60
2018-02-25T11:27:51.901Z,1.60
2018-02-25T11:30:19.360Z,1.50
2018-02-25T11:32:46.801Z,1.70
2018-02-25T11:35:15.023Z,2.00
2018-02-25T11:37:42.481Z,1.90
2018-02-25T11:40:09.939Z,2.20
2018-02-25T11:42:37.392Z,2.30
2018-02-25T11:45:04.828Z,2.50
2018-02-25T11:47:32.300Z,2.30
2018-02-25T11:50:00.576Z,1.80
2018-02-25T11:52:28.060Z,1.70
2018-02-25T11:54:55.475Z,1.60
2018-02-25T11:57:23.018Z,1.30
2018-02-25T11:59:50.481Z,1.40
2018-02-25T12:02:17.936Z,1.60
2018-02-25T12:04:46.144Z,1.10
2018-02-25T12:07:13.597Z,1.10
2018-02-25T12:09:41.068Z,1.40
2018-02-25T12:12:08.502Z,1.30
2018-02-25T12:14:35.954Z,1.30
2018-02-25T12:17:03.426Z,1.40
2018-02-25T12:19:30.874Z,1.50
2018-02-25T12:21:58.316Z,1.30
2018-02-25T12:24:25.761Z,1.20
2018-02-25T12:26:53.970Z,1.20
2018-02-25T12:29:21.414Z,1.10
2018-02-25T12:31:48.860Z,1.10
2018-02-25T12:34:16.305Z,1.00
2018-02-25T12:36:44.659Z,1.10
2018-02-25T12:39:12.102Z,1.10
2018-02-25T12:41:39.536Z,1.00
2018-02-25T12:44:06.989Z,0.80
2018-02-25T12:46:34.440Z,0.90
2018-02-25T12:49:01.895Z,0.90
2018-02-25T12:51:29.350Z,0.90
2018-02-25T12:53:56.896Z,0.90
2018-02-25T12:56:24.408Z,0.90
2018-02-25T12:58:51.875Z,1.00
2018-02-25T13:01:19.317Z,1.00
2018-02-25T13:03:46.755Z,1.00
2018-02-25T13:06:14.288Z,0.90
2018-02-25T13:08:41.724Z,0.90
2018-02-25T13:11:09.942Z,1.00
2018-02-25T13:13:37.460Z,1.00
2018-02-25T13:16:05.677Z,0.80
2018-02-25T13:18:33.121Z,0.70
2018-02-25T13:21:00.635Z,0.70
2018-02-25T13:23:28.120Z,0.60
2018-02-25T13:25:56.333Z,0.80
2018-02-25T13:28:23.796Z,0.70
2018-02-25T13:30:51.307Z,0.80
2018-02-25T13:33:18.861Z,0.90
2018-02-25T13:35:47.086Z,0.80
2018-02-25T13:38:14.534Z,0.80
2018-02-25T13:40:42.000Z,0.70
2018-02-25T13:43:09.521Z,0.60
2018-02-25T13:45:36.986Z,0.70
2018-02-25T13:48:04.431Z,0.90
2018-02-25T13:50:32.737Z,0.90
2018-02-25T13:53:00.324Z,0.90
2018-02-25T13:55:27.786Z,0.80
2018-02-25T13:57:56.003Z,0.60
2018-02-25T14:00:23.508Z,0.60
2018-02-25T14:02:50.978Z,0.60
2018-02-25T14:05:18.396Z,0.60
2018-02-25T14:07:45.845Z,0.60
2018-02-25T14:10:13.329Z,0.60
2018-02-25T14:12:40.767Z,0.60
2018-02-25T14:15:08.212Z,0.50
2018-02-25T14:17:35.682Z,0.50
2018-02-25T14:20:03.129Z,0.50
2018-02-25T14:22:30.577Z,0.50
2018-02-25T14:24:58.787Z,0.50
2018-02-25T14:27:26.311Z,0.40
2018-02-25T14:29:54.518Z,0.50
2018-02-25T14:32:21.964Z,0.50
2018-02-25T14:34:49.401Z,0.40
2018-02-25T14:37:17.706Z,0.30
2018-02-25T14:39:45.876Z,0.40
2018-02-25T14:42:13.328Z,0.40
2018-02-25T14:44:40.765Z,0.30
2018-02-25T14:47:08.977Z,0.40
2018-02-25T14:49:36.416Z,0.40
2018-02-25T14:52:03.853Z,0.50
2018-02-25T14:54:32.061Z,0.60
2018-02-25T14:56:59.559Z,0.50
2018-02-25T14:59:26.941Z,0.60
2018-02-25T15:01:55.131Z,0.40
2018-02-25T15:04:22.572Z,0.40
2018-02-25T15:06:50.785Z,0.40
2018-02-25T15:09:18.224Z,0.40
2018-02-25T15:11:45.696Z,0.30
2018-02-25T15:14:13.136Z,0.30
2018-02-25T15:16:40.646Z,0.20
2018-02-25T15:19:08.109Z,0.20
2018-02-25T15:21:35.553Z,0.20
2018-02-25T15:24:03.005Z,0.30
2018-02-25T15:26:30.459Z,0.30
2018-02-25T15:28:57.914Z,0.30
2018-02-25T15:31:25.378Z,0.20
2018-02-25T15:33:53.635Z,0.10
2018-02-25T15:36:21.064Z,0.10
2018-02-25T15:38:48.519Z,0.10
2018-02-25T15:41:16.740Z,0.00
2018-02-25T15:43:44.188Z,0.00
2018-02-25T15:46:11.642Z,0.10
2018-02-25T15:48:39.055Z,0.00
2018-02-25T15:51:07.286Z,-0.10
2018-02-25T15:53:35.503Z,-0.10
2018-02-25T15:56:04.517Z,-0.20
2018-02-25T15:58:31.977Z,-0.20
2018-02-25T16:00:59.418Z,-0.20
2018-02-25T16:03:27.637Z,-0.20
2018-02-25T16:05:55.079Z,-0.20
2018-02-25T16:08:22.516Z,-0.30
2018-02-25T16:10:49.956Z,-0.30
2018-02-25T16:13:18.181Z,-0.30
2018-02-25T16:15:45.618Z,-0.30
2018-02-25T16:18:13.060Z,-0.40
2018-02-25T16:20:40.505Z,-0.40
2018-02-25T16:23:08.760Z,-0.30
2018-02-25T16:25:36.223Z,-0.40
2018-02-25T16:28:04.537Z,-0.30
2018-02-25T16:30:33.045Z,-0.30
2018-02-25T16:33:00.513Z,-0.40
2018-02-25T16:35:28.037Z,-0.40
2018-02-25T16:37:55.583Z,-0.40
2018-02-25T16:40:23.869Z,-0.50
2018-02-25T16:42:51.300Z,-0.50
2018-02-25T16:45:19.518Z,-0.60
2018-02-25T16:47:46.976Z,-0.60
2018-02-25T16:50:14.520Z,-0.60
2018-02-25T16:52:41.958Z,-0.60
2018-02-25T16:55:10.794Z,-0.80
2018-02-25T16:57:38.226Z,-0.80
2018-02-25T17:00:06.026Z,-0.80
2018-02-25T17:02:33.562Z,-0.90
2018-02-25T17:05:01.009Z,-0.90
2018-02-25T17:07:29.426Z,-1.00
2018-02-25T17:09:56.936Z,-1.00
2018-02-25T17:12:24.392Z,-1.10
2018-02-25T17:14:51.838Z,-1.10
2018-02-25T17:17:20.069Z,-1.20
2018-02-25T17:19:47.508Z,-1.20
2018-02-25T17:22:14.968Z,-1.20
2018-02-25T17:24:42.535Z,-1.30
2018-02-25T17:27:09.996Z,-1.20
2018-02-25T17:29:37.463Z,-1.30
2018-02-25T17:32:04.910Z,-1.30
2018-02-25T17:34:32.425Z,-1.20
2018-02-25T17:37:00.645Z,-1.30
2018-02-25T17:39:28.078Z,-1.30
2018-02-25T17:41:55.531Z,-1.40
2018-02-25T17:44:22.977Z,-1.40
2018-02-25T17:46:51.192Z,-1.50
2018-02-25T17:49:18.639Z,-1.50
2018-02-25T17:51:46.095Z,-1.50
2018-02-25T17:54:13.546Z,-1.40
2018-02-25T17:56:40.996Z,-1.40
2018-02-25T17:59:08.444Z,-1.40
2018-02-25T18:01:35.901Z,-1.50
2018-02-25T18:04:03.356Z,-1.50
2018-02-25T18:06:31.567Z,-1.40
2018-02-25T18:08:59.011Z,-1.40
2018-02-25T18:11:26.449Z,-1.40
2018-02-25T18:13:53.935Z,-1.40
2018-02-25T18:16:21.388Z,-1.30
2018-02-25T18:18:48.915Z,-1.30
2018-02-25T18:21:17.202Z,-1.30
2018-02-25T18:23:44.658Z,-1.40
2018-02-25T18:26:12.220Z,-1.40
2018-02-25T18:28:40.705Z,-1.40
2018-02-25T18:31:08.265Z,-1.40
2018-02-25T18:33:35.723Z,-1.50
2018-02-25T18:36:03.181Z,-1.50
2018-02-25T18:38:30.656Z,-1.60
2018-02-25T18:40:58.186Z,-1.50
2018-02-25T18:43:26.411Z,-1.60
2018-02-25T18:45:53.849Z,-1.60
2018-02-25T18:48:21.311Z,-1.60
2018-02-25T18:50:48.830Z,-1.60
2018-02-25T18:53:17.050Z,-1.70
2018-02-25T18:55:44.501Z,-1.70
2018-02-25T18:58:11.963Z,-1.70
2018-02-25T19:00:39.413Z,-1.70
2018-02-25T19:03:06.928Z,-1.70
2018-02-25T19:05:34.374Z,-1.70
2018-02-25T19:08:01.831Z,-1.80
2018-02-25T19:10:29.283Z,-1.70
2018-02-25T19:12:56.739Z,-1.70
2018-02-25T19:15:24.192Z,-1.80
2018-02-25T19:17:51.815Z,-1.90
2018-02-25T19:20:19.346Z,-1.80
2018-02-25T19:22:46.800Z,-1.90
2018-02-25T19:25:15.026Z,-1.90
2018-02-25T19:27:42.483Z,-1.90
2018-02-25T19:30:09.942Z,-2.00
2018-02-25T19:32:37.443Z,-1.90
2018-02-25T19:35:05.693Z,-2.00
2018-02-25T19:37:49.091Z,-2.00
2018-02-25T19:40:16.593Z,-2.00
2018-02-25T19:42:44.819Z,-2.00
2018-02-25T19:45:12.372Z,-2.00
2018-02-25T19:47:39.903Z,-2.00
2018-02-25T19:50:08.121Z,-2.10
2018-02-25T19:52:36.358Z,-2.10
2018-02-25T19:55:03.817Z,-2.10
2018-02-25T19:57:32.096Z,-2.00
2018-02-25T20:00:00.774Z,-2.00
2018-02-25T20:02:28.241Z,-2.10
2018-02-25T20:04:55.699Z,-2.10
2018-02-25T20:07:23.150Z,-2.10
2018-02-25T20:09:51.431Z,-2.20
2018-02-25T20:12:18.888Z,-2.10
2018-02-25T20:14:46.334Z,-2.10
2018-02-25T20:17:14.774Z,-2.00
2018-02-25T20:19:42.230Z,-2.10
2018-02-25T20:22:09.693Z,-2.10
2018-02-25T20:24:37.152Z,-2.10
2018-02-25T20:27:04.620Z,-2.10
2018-02-25T20:29:32.065Z,-2.20
2018-02-25T20:31:59.514Z,-2.20
2018-02-25T20:34:26.961Z,-2.20
2018-02-25T20:36:54.410Z,-2.30
2018-02-25T20:39:21.874Z,-2.30
2018-02-25T20:41:49.350Z,-2.40
2018-02-25T20:44:16.825Z,-2.40
2018-02-25T20:46:44.250Z,-2.40
2018-02-25T20:49:11.787Z,-2.40
2018-02-25T20:51:39.301Z,-2.30
2018-02-25T20:54:06.765Z,-2.30
2018-02-25T20:56:34.224Z,-2.40
2018-02-25T20:59:02.450Z,-2.40
2018-02-25T21:01:29.914Z,-2.40
2018-02-25T21:03:57.364Z,-2.40
2018-02-25T21:06:24.824Z,-2.30
2018-02-25T21:08:52.272Z,-2.30
2018-02-25T21:11:19.728Z,-2.40
2018-02-25T21:13:47.201Z,-2.40
2018-02-25T21:16:14.648Z,-2.50
2018-02-25T21:18:42.094Z,-2.50
2018-02-25T21:21:09.549Z,-2.40
2018-02-25T21:23:37.021Z,-2.50
2018-02-25T21:26:04.482Z,-2.50
2018-02-25T21:28:32.000Z,-2.60
2018-02-25T21:30:59.475Z,-2.50
2018-02-25T21:33:26.918Z,-2.70
2018-02-25T21:35:55.127Z,-2.80
2018-02-25T21:38:22.582Z,-2.80
2018-02-25T21:40:50.052Z,-2.80
2018-02-25T21:43:17.549Z,-2.70
2018-02-25T21:45:44.987Z,-2.70
2018-02-25T21:48:12.435Z,-2.70
2018-02-25T21:50:39.876Z,-2.80
2018-02-25T21:53:07.328Z,-2.90
2018-02-25T21:55:34.817Z,-2.80
2018-02-25T21:58:07.905Z,-2.80
2018-02-25T22:00:40.971Z,-2.90
2018-02-25T22:03:14.159Z,-3.00
2018-02-25T22:05:41.614Z,-2.90
2018-02-25T22:08:09.060Z,-2.90
2018-02-25T22:10:36.533Z,-2.90
2018-02-25T22:13:03.968Z,-2.90
2018-02-25T22:15:31.429Z,-2.80
2018-02-25T22:17:58.865Z,-2.90
2018-02-25T22:20:27.074Z,-2.90
2018-02-25T22:22:54.520Z,-2.90
2018-02-25T22:25:21.971Z,-2.80
2018-02-25T22:27:49.415Z,-3.00
2018-02-25T22:30:17.632Z,-3.10
2018-02-25T22:32:45.082Z,-3.10
2018-02-25T22:35:12.523Z,-3.20
2018-02-25T22:37:39.977Z,-3.10
2018-02-25T22:40:07.437Z,-3.10
2018-02-25T22:42:34.888Z,-3.10
2018-02-25T22:45:02.354Z,-3.20
2018-02-25T22:47:30.541Z,-3.20
2018-02-25T22:49:57.982Z,-3.20
2018-02-25T22:52:25.436Z,-3.20
2018-02-25T22:54:52.893Z,-3.20
2018-02-25T22:57:20.336Z,-3.10
2018-02-25T22:59:48.559Z,-3.30
2018-02-25T23:02:16.026Z,-3.30
2018-02-25T23:04:43.477Z,-3.30
2018-02-25T23:07:10.963Z,-3.30
2018-02-25T23:09:38.390Z,-3.30
2018-02-25T23:12:05.850Z,-3.30
2018-02-25T23:14:33.292Z,-3.30
2018-02-25T23:17:00.739Z,-3.40
2018-02-25T23:19:28.173Z,-3.40
2018-02-25T23:21:55.624Z,-3.40
2018-02-25T23:24:23.840Z,-3.40
2018-02-25T23:26:51.299Z,-3.40
2018-02-25T23:29:18.747Z,-3.40
2018-02-25T23:31:46.207Z,-3.50
2018-02-25T23:34:13.648Z,-3.60
2018-02-25T23:36:41.098Z,-3.60
2018-02-25T23:39:08.553Z,-3.70
2018-02-25T23:41:36.000Z,-3.70
2018-02-25T23:44:04.211Z,-3.70
2018-02-25T23:46:31.660Z,-3.70
2018-02-25T23:48:59.125Z,-3.80
2018-02-25T23:51:26.582Z,-3.70
2018-02-25T23:53:54.037Z,-3.80
2018-02-25T23:56:21.488Z,-3.90
2018-02-25T23:58:48.949Z,-3.90
